Terminal Aerodrome Forecast
Issued by NWS

Home | Current Version | Previous Version | Text Only | Print | Product List | Glossary On
Versions: 1 2 3 4 5 6 7 8 9 10 11 12 13 14 15 16 17 18 19 20 21 22 23 24 25 26 27 28 29 30 31 32 33 34 35 36 37 38 39 40 41 42 43 44 45 46 47 48 49 50
000
FTUS45 KABQ 231140
TAFGUP
TAF
KGUP 231140Z 2312/2412 12006KT P6SM BKN130
     FM232000 10008KT P6SM VCTS BKN070CB
      TEMPO 2320/2323 VRB18G30KT 6SM -SHRA BKN070
     FM232300 15010KT P6SM VCSH BKN090
     FM240500 19006KT P6SM BKN090=

USA.gov is the U.S. government's official web portal to all federal, state and local government web resources and services.